Time;durP1;ratioP1;P1;durP2;ratioP2;P2;SDS_P1;SDS_P2;PMS_P1;PMS_P2;Temp;Humidity;BMP_temperature;BMP_pressure;BME280_temperature;BME280_humidity;BME280_pressure;Samples;Min_cycle;Max_cycle;Signal;HPM_P1;HPM_P2
2022/03/22 00:02:24;;;;;;;35.50;22.40;;;;;;;-1.84;50.90;99168.64;110434;1245;59685;-65
2022/03/22 00:04:55;;;;;;;40.00;25.40;;;;;;;-1.89;50.43;99170.16;110303;1244;71362;-64
2022/03/22 00:07:27;;;;;;;34.90;21.30;;;;;;;-1.94;53.12;99167.91;110079;1247;66791;-62
2022/03/22 00:09:57;;;;;;;35.20;20.90;;;;;;;-1.97;52.92;99168.73;109845;1247;69415;-66
2022/03/22 00:12:28;;;;;;;32.50;20.70;;;;;;;-1.99;51.31;99170.80;110122;1247;59704;-68
2022/03/22 00:14:58;;;;;;;34.90;20.60;;;;;;;-2.00;50.44;99173.67;110118;1247;59673;-62
2022/03/22 00:17:48;;;;;;;28.50;19.50;;;;;;;-2.05;54.34;99170.58;109862;1247;71487;-64
2022/03/22 00:20:18;;;;;;;32.50;22.40;;;;;;;-2.07;53.01;99170.23;110147;1247;68684;-65
2022/03/22 00:22:48;;;;;;;35.80;22.40;;;;;;;-2.07;51.42;99169.20;110097;1245;68838;-61
2022/03/22 00:25:18;;;;;;;35.80;21.90;;;;;;;-2.02;53.70;99172.81;109880;1245;59750;-64
2022/03/22 00:27:55;;;;;;;36.00;22.10;;;;;;;-1.90;55.71;99173.55;110137;1244;59763;-65
2022/03/22 00:30:27;;;;;;;35.30;20.80;;;;;;;-1.80;55.23;99170.20;110153;1244;70618;-66
2022/03/22 00:33:01;;;;;;;33.50;20.30;;;;;;;-1.69;56.16;99167.17;110132;1245;68369;-62
2022/03/22 00:35:36;;;;;;;38.70;22.80;;;;;;;-1.62;55.52;99169.75;110264;1244;68783;-63
2022/03/22 00:38:16;;;;;;;31.30;21.30;;;;;;;-1.53;55.98;99170.48;110202;1247;59733;-64
2022/03/22 00:40:46;;;;;;;38.50;22.20;;;;;;;-1.46;55.69;99172.04;110470;1244;59755;-65
2022/03/22 00:43:16;;;;;;;38.40;21.10;;;;;;;-1.40;55.39;99169.49;110130;1247;70510;-63
2022/03/22 00:45:48;;;;;;;29.80;18.30;;;;;;;-1.36;54.81;99169.16;109903;1248;68610;-65
2022/03/22 00:48:18;;;;;;;23.50;16.20;;;;;;;-1.34;54.64;99165.59;110414;1244;68669;-63
2022/03/22 00:50:51;;;;;;;29.10;20.30;;;;;;;-1.32;53.70;99165.41;110416;1244;59750;-60
2022/03/22 00:53:21;;;;;;;29.80;17.00;;;;;;;-1.30;52.87;99170.55;110166;1244;59700;-61
2022/03/22 00:55:52;;;;;;;34.30;22.20;;;;;;;-1.34;52.93;99172.41;110415;1243;70826;-65
2022/03/22 00:58:22;;;;;;;34.90;22.10;;;;;;;-1.43;53.19;99168.80;110162;1245;68159;-65
2022/03/22 01:00:52;;;;;;;29.70;18.40;;;;;;;-1.52;51.84;99168.43;110079;1244;68682;-64
2022/03/22 01:03:22;;;;;;;;;;;;;;;-1.60;51.62;99163.95;110115;1247;59744;-65
2022/03/22 01:05:52;;;;;;;19.50;14.00;;;;;;;-1.65;53.51;99168.21;110245;1247;59649;-64
2022/03/22 01:08:23;;;;;;;19.20;13.90;;;;;;;-1.70;51.05;99163.73;110156;1247;71542;-61
2022/03/22 01:10:54;;;;;;;26.70;16.90;;;;;;;-1.75;53.10;99163.38;110172;1247;68088;-63
2022/03/22 01:13:27;;;;;;;;;;;;;;;-1.81;51.06;99160.28;110043;1250;69443;-64
2022/03/22 01:15:57;;;;;;;29.70;16.90;;;;;;;-1.85;51.60;99155.98;110373;1244;59660;-65
2022/03/22 01:18:28;;;;;;;24.20;16.60;;;;;;;-1.86;52.28;99158.20;110152;1244;59742;-64
2022/03/22 01:20:59;;;;;;;22.90;17.20;;;;;;;-1.86;52.78;99159.05;110178;1245;70574;-61
2022/03/22 01:23:29;;;;;;;28.00;18.40;;;;;;;-1.88;53.99;99155.30;110149;1247;68475;-64
2022/03/22 01:25:59;;;;;;;35.60;23.10;;;;;;;-1.96;53.73;99159.87;110182;1244;69441;-66
2022/03/22 01:28:30;;;;;;;39.10;23.90;;;;;;;-2.12;51.63;99161.31;110096;1247;59691;-65
2022/03/22 01:31:01;;;;;;;36.70;21.50;;;;;;;-2.29;51.91;99162.74;110186;1247;59682;-65
2022/03/22 01:33:31;;;;;;;33.40;20.10;;;;;;;-2.45;52.64;99164.34;110221;1247;71553;-65
2022/03/22 01:36:01;;;;;;;21.30;13.30;;;;;;;-2.57;52.58;99166.98;110216;1247;67801;-65
2022/03/22 01:38:32;;;;;;;22.70;15.60;;;;;;;-2.66;52.10;99166.40;110281;1245;68114;-65
2022/03/22 01:41:02;;;;;;;;;;;;;;;-2.74;52.82;99166.35;110255;1246;59776;-64
2022/03/22 01:43:32;;;;;;;33.20;18.90;;;;;;;-2.80;53.13;99165.10;110262;1245;59748;-64
2022/03/22 01:46:02;;;;;;;30.40;20.10;;;;;;;-2.87;53.84;99161.45;110201;1245;71581;-64
2022/03/22 01:48:32;;;;;;;30.80;20.10;;;;;;;-2.90;57.96;99166.39;110441;1244;68497;-62
2022/03/22 01:51:03;;;;;;;34.40;19.90;;;;;;;-2.92;56.99;99161.91;110177;1244;69437;-65
2022/03/22 01:53:37;;;;;;;32.90;20.40;;;;;;;-2.95;54.12;99155.58;110136;1244;59790;-66
2022/03/22 01:56:07;;;;;;;36.00;22.60;;;;;;;-2.97;54.64;99159.98;110410;1244;59732;-65
2022/03/22 01:58:37;;;;;;;28.60;18.30;;;;;;;-2.98;54.03;99156.23;110135;1244;70705;-66
2022/03/22 02:06:54;;;;;;;33.00;20.80;;;;;;;-3.10;58.17;99153.91;110486;1244;59621;-63
2022/03/22 02:09:24;;;;;;;40.20;22.60;;;;;;;-3.12;57.07;99158.50;110142;1245;59744;-65
2022/03/22 02:11:55;;;;;;;26.70;19.60;;;;;;;-3.15;55.22;99156.59;110023;1245;70961;-61
2022/03/22 02:14:27;;;;;;;25.40;16.70;;;;;;;-3.20;56.51;99161.15;110161;1245;68589;-61
2022/03/22 02:16:57;;;;;;;;;;;;;;;-3.25;56.40;99160.41;110436;1244;68461;-65
2022/03/22 02:19:28;;;;;;;31.10;18.60;;;;;;;-3.32;56.83;99157.09;110402;1244;59687;-62
2022/03/22 02:22:02;;;;;;;36.10;22.10;;;;;;;-3.37;54.48;99157.39;110438;1244;59727;-61
2022/03/22 02:24:32;;;;;;;29.80;18.10;;;;;;;-3.40;59.12;99162.64;110444;1244;70806;-61
2022/03/22 02:27:02;;;;;;;21.80;14.10;;;;;;;-3.43;56.09;99162.77;110281;1244;68557;-63
2022/03/22 02:29:34;;;;;;;21.70;14.30;;;;;;;-3.46;55.11;99158.48;110343;1244;68746;-60
2022/03/22 02:32:07;;;;;;;19.70;11.50;;;;;;;-3.46;54.36;99162.58;110125;1247;59762;-61
2022/03/22 02:34:39;;;;;;;21.50;14.00;;;;;;;-3.45;53.96;99160.71;110127;1245;60079;-62
2022/03/22 02:37:09;;;;;;;22.10;16.10;;;;;;;-3.43;57.27;99166.34;110116;1247;71509;-62
2022/03/22 02:39:39;;;;;;;25.80;16.00;;;;;;;-3.44;55.05;99162.77;110161;1247;68070;-63
2022/03/22 02:42:09;;;;;;;23.50;14.10;;;;;;;-3.43;56.97;99166.52;110065;1247;69323;-64
2022/03/22 02:44:40;;;;;;;30.30;18.10;;;;;;;-3.45;57.48;99160.37;110129;1247;59708;-64
2022/03/22 02:47:10;;;;;;;27.80;18.50;;;;;;;-3.44;58.55;99164.48;109846;1250;59675;-61
2022/03/22 02:49:40;;;;;;;29.00;19.30;;;;;;;-3.42;57.78;99163.65;110243;1246;70776;-61
2022/03/22 02:52:09;;;;;;;18.70;14.10;;;;;;;-3.42;55.88;99171.30;110157;1247;68553;-61
2022/03/22 02:54:40;;;;;;;18.40;12.40;;;;;;;-3.43;54.65;99173.02;110454;1244;69271;-62
2022/03/22 02:57:10;;;;;;;34.20;22.00;;;;;;;-3.44;55.75;99170.61;109482;1247;898135;-60
2022/03/22 02:59:40;;;;;;;35.70;20.50;;;;;;;-3.47;56.98;99171.44;110420;1244;59641;-61
2022/03/22 03:02:11;;;;;;;31.50;19.10;;;;;;;-3.62;60.05;99169.89;110082;1247;71561;-63
2022/03/22 03:04:41;;;;;;;40.60;24.40;;;;;;;-3.69;59.14;99170.48;110052;1247;68585;-64
2022/03/22 03:07:11;;;;;;;37.40;20.90;;;;;;;-3.75;57.00;99166.50;110124;1245;69421;-62
2022/03/22 03:09:41;;;;;;;30.10;18.40;;;;;;;-3.80;57.20;99165.59;110111;1247;59733;-62
2022/03/22 03:12:11;;;;;;;38.80;22.90;;;;;;;-3.81;59.36;99165.40;110079;1247;59667;-62
2022/03/22 03:14:43;;;;;;;29.80;17.60;;;;;;;-3.84;59.30;99165.88;110164;1247;70832;-60
2022/03/22 03:17:15;;;;;;;26.30;16.80;;;;;;;-3.89;59.82;99166.67;110135;1248;68036;-62
2022/03/22 03:19:46;;;;;;;26.90;16.60;;;;;;;-3.93;59.52;99166.95;110128;1247;68564;-62
2022/03/22 03:22:15;;;;;;;25.90;16.80;;;;;;;-3.96;58.24;99166.41;110193;1247;59773;-63
2022/03/22 03:24:46;;;;;;;25.20;16.60;;;;;;;-3.96;57.37;99161.47;110172;1247;59679;-62
2022/03/22 03:27:16;;;;;;;35.60;22.20;;;;;;;-3.94;61.20;99164.54;110170;1247;70626;-64
2022/03/22 03:29:46;;;;;;;33.60;20.20;;;;;;;-3.98;61.41;99162.98;109968;1250;67919;-64
2022/03/22 03:32:17;;;;;;;32.20;19.20;;;;;;;-4.00;61.78;99159.37;110104;1247;69420;-66
2022/03/22 03:34:47;;;;;;;33.60;22.50;;;;;;;-4.02;58.89;99163.60;110118;1247;59697;-65
2022/03/22 03:37:17;;;;;;;33.90;21.80;;;;;;;-4.04;58.60;99163.56;110101;1248;59676;-65
2022/03/22 03:39:46;;;;;;;37.70;21.60;;;;;;;-4.04;60.58;99166.13;110129;1247;70211;-63
2022/03/22 03:42:16;;;;;;;27.90;17.20;;;;;;;-4.06;59.71;99162.86;110161;1247;68589;-62
2022/03/22 03:47:35;;;;;;;22.60;16.20;;;;;;;-4.17;61.09;99161.88;109997;1248;59813;-65
2022/03/22 03:50:07;;;;;;;24.60;17.00;;;;;;;-4.22;63.02;99159.42;110191;1246;59649;-64
2022/03/22 03:52:38;;;;;;;17.80;13.00;;;;;;;-4.26;62.69;99163.61;110163;1247;71530;-65
2022/03/22 03:55:08;;;;;;;21.20;11.90;;;;;;;-4.30;60.22;99160.49;110142;1247;67640;-63
2022/03/22 03:57:37;;;;;;;30.30;18.70;;;;;;;-4.32;62.33;99159.27;110150;1247;69476;-63
2022/03/22 04:00:08;;;;;;;30.40;17.80;;;;;;;-4.36;63.74;99158.70;109980;1248;59739;-62
2022/03/22 04:02:43;;;;;;;20.80;14.00;;;;;;;-4.40;61.36;99161.20;110101;1247;59644;-62
2022/03/22 04:05:13;;;;;;;36.00;20.00;;;;;;;-4.43;59.29;99163.20;110149;1247;69640;-64
2022/03/22 04:07:43;;;;;;;20.20;12.70;;;;;;;-4.49;59.79;99162.42;110083;1248;68629;-64
2022/03/22 04:10:13;;;;;;;30.80;19.00;;;;;;;-4.53;62.56;99163.73;110067;1248;69424;-65
2022/03/22 04:12:44;;;;;;;30.90;17.50;;;;;;;-4.56;60.54;99162.98;110112;1247;59754;-68
2022/03/22 04:15:14;;;;;;;26.50;16.30;;;;;;;-4.60;61.76;99160.90;110144;1246;59681;-65
2022/03/22 04:17:44;;;;;;;22.10;13.70;;;;;;;-4.61;59.46;99165.31;110119;1247;69869;-64
2022/03/22 04:20:14;;;;;;;32.40;17.10;;;;;;;-4.61;58.94;99167.52;110118;1247;67801;-63
2022/03/22 04:22:44;;;;;;;32.80;19.00;;;;;;;-4.59;59.36;99162.95;110349;1247;68674;-63
2022/03/22 04:25:14;;;;;;;23.00;15.30;;;;;;;-4.54;60.28;99163.87;110333;1246;59680;-61
2022/03/22 04:33:25;;;;;;;24.10;15.10;;;;;;;-4.50;59.34;99169.89;110079;1247;68362;-65
2022/03/22 04:35:54;;;;;;;29.40;16.60;;;;;;;-4.50;63.23;99171.26;110040;1247;69263;-61
2022/03/22 04:38:25;;;;;;;30.00;18.30;;;;;;;-4.49;64.39;99173.30;110122;1247;59751;-61
2022/03/22 04:40:55;;;;;;;20.10;13.60;;;;;;;-4.49;64.22;99174.48;110327;1247;59792;-62
2022/03/22 04:43:26;;;;;;;14.10;9.10;;;;;;;-4.46;63.01;99173.20;110121;1248;70982;-60
2022/03/22 04:45:56;;;;;;;16.90;11.40;;;;;;;-4.38;64.40;99178.76;110223;1245;67675;-63
2022/03/22 04:48:25;;;;;;;;;;;;;;;-4.26;62.50;99180.30;110302;1247;68649;-62
2022/03/22 04:56:46;;;;;;;29.90;18.20;;;;;;;-3.77;61.91;99188.12;110354;1247;71667;-62
2022/03/22 04:59:22;;;;;;;25.00;14.50;;;;;;;-3.61;62.24;99185.41;110279;1246;67706;-62
2022/03/22 05:01:51;;;;;;;29.10;17.00;;;;;;;-3.42;62.07;99182.23;110068;1247;68636;-63
2022/03/22 05:04:21;;;;;;;23.80;15.90;;;;;;;-3.16;61.18;99190.52;110257;1245;59605;-62
2022/03/22 05:06:51;;;;;;;23.90;16.20;;;;;;;-2.95;60.65;99179.64;110156;1245;59682;-65
2022/03/22 05:09:22;;;;;;;36.90;24.00;;;;;;;-2.74;60.19;99185.96;110061;1247;70592;-63
2022/03/22 05:11:52;;;;;;;38.20;21.50;;;;;;;-2.58;60.27;99184.90;110123;1248;68631;-63
2022/03/22 05:14:22;;;;;;;38.80;23.30;;;;;;;-2.47;59.42;99180.73;110087;1248;68563;-62
2022/03/22 05:16:51;;;;;;;35.50;21.00;;;;;;;-2.35;58.95;99184.58;110280;1245;59729;-62
2022/03/22 05:19:27;;;;;;;40.00;22.80;;;;;;;-2.09;58.64;99184.90;110186;1247;59688;-61
2022/03/22 05:21:56;;;;;;;31.30;18.60;;;;;;;-1.92;57.46;99189.09;110464;1244;71567;-60
2022/03/22 05:24:25;;;;;;;39.30;23.40;;;;;;;-1.86;57.07;99187.09;110097;1244;67833;-61
2022/03/22 05:26:55;;;;;;;33.50;19.70;;;;;;;-1.67;57.19;99189.06;110136;1244;69259;-63
2022/03/22 05:29:24;;;;;;;40.00;23.20;;;;;;;-1.50;56.42;99188.10;110365;1244;59661;-61
2022/03/22 05:31:54;;;;;;;39.90;22.20;;;;;;;-1.44;55.99;99192.06;110329;1247;59684;-65
2022/03/22 05:34:24;;;;;;;45.80;27.00;;;;;;;-1.11;56.88;99190.95;110101;1247;70751;-64
2022/03/22 05:36:53;;;;;;;38.00;24.70;;;;;;;-0.82;55.94;99190.15;110114;1247;68413;-63
2022/03/22 05:39:22;;;;;;;43.40;25.40;;;;;;;-0.60;55.09;99192.90;110048;1244;69133;-61
2022/03/22 05:41:52;;;;;;;34.80;21.50;;;;;;;-0.36;54.66;99191.36;110292;1247;59730;-64
2022/03/22 05:44:22;;;;;;;38.50;25.40;;;;;;;-0.03;53.26;99188.56;110443;1244;59669;-64
2022/03/22 05:46:51;;;;;;;48.10;30.30;;;;;;;0.07;51.94;99191.98;110379;1247;70988;-62
2022/03/22 05:49:20;;;;;;;49.30;32.30;;;;;;;0.22;51.48;99188.86;110418;1244;68729;-62
2022/03/22 05:51:49;;;;;;;50.10;30.50;;;;;;;0.38;51.80;99187.44;110378;1247;68641;-62
2022/03/22 05:54:19;;;;;;;46.40;29.50;;;;;;;0.35;50.79;99184.52;110387;1244;59768;-63
2022/03/22 05:56:48;;;;;;;37.90;23.30;;;;;;;0.65;51.02;99187.31;110378;1247;59630;-63
2022/03/22 05:59:18;;;;;;;31.90;20.30;;;;;;;1.06;49.28;99183.14;110346;1244;71460;-64
2022/03/22 06:01:47;;;;;;;27.60;19.90;;;;;;;1.36;48.15;99180.00;110292;1247;67635;-64
2022/03/22 06:04:19;;;;;;;67.30;38.20;;;;;;;1.79;50.22;99177.92;109989;1248;68628;-62
2022/03/22 06:06:49;;;;;;;61.20;32.30;;;;;;;2.05;48.55;99180.41;110095;1247;59753;-63
2022/03/22 06:09:19;;;;;;;52.20;27.10;;;;;;;2.42;49.56;99182.06;110114;1247;59637;-64
2022/03/22 06:11:48;;;;;;;64.00;39.00;;;;;;;2.76;45.10;99184.40;110123;1247;71553;-65
2022/03/22 06:14:18;;;;;;;62.80;37.60;;;;;;;2.81;45.27;99181.07;110216;1247;68585;-63
2022/03/22 06:16:47;;;;;;;48.10;28.40;;;;;;;2.93;45.29;99181.58;110086;1247;68757;-63
2022/03/22 06:19:17;;;;;;;53.30;31.20;;;;;;;3.12;45.43;99178.39;110239;1245;59684;-65
2022/03/22 06:21:47;;;;;;;55.00;34.30;;;;;;;3.33;46.06;99178.23;110156;1247;59653;-64
2022/03/22 06:24:17;;;;;;;49.10;29.60;;;;;;;3.59;44.22;99175.23;110128;1247;70806;-64
2022/03/22 06:26:46;;;;;;;;;;;;;;;3.74;44.75;99180.85;110421;1245;68603;-64
2022/03/22 06:29:16;;;;;;;47.60;29.60;;;;;;;3.97;43.53;99187.00;110175;1247;69433;-61
2022/03/22 06:31:45;;;;;;;46.50;30.40;;;;;;;4.02;42.56;99179.83;110168;1247;59735;-62
2022/03/22 06:34:14;;;;;;;45.50;30.40;;;;;;;3.88;42.90;99175.77;110266;1247;59740;-62
2022/03/22 06:36:44;;;;;;;41.20;29.90;;;;;;;4.03;43.17;99183.09;110469;1245;72562;-61
2022/03/22 06:39:15;;;;;;;50.50;33.60;;;;;;;4.14;43.22;99180.46;110423;1246;68026;-62
2022/03/22 06:41:45;;;;;;;42.20;26.80;;;;;;;4.25;42.62;99174.91;110110;1247;69471;-63
2022/03/22 06:44:14;;;;;;;;;;;;;;;4.18;42.75;99171.08;110153;1247;59819;-62
2022/03/22 06:46:44;;;;;;;34.20;24.70;;;;;;;4.46;42.58;99171.05;110423;1244;59745;-62
2022/03/22 06:49:13;;;;;;;35.70;25.70;;;;;;;4.73;42.31;99164.28;110328;1247;70746;-62
2022/03/22 06:51:44;;;;;;;32.70;22.70;;;;;;;4.93;41.60;99160.55;110395;1247;67757;-66
2022/03/22 06:54:14;;;;;;;38.40;23.80;;;;;;;5.09;41.01;99156.73;110100;1247;68851;-62
2022/03/22 06:56:44;;;;;;;32.60;22.20;;;;;;;5.16;40.92;99164.20;110110;1248;59730;-64
2022/03/22 06:59:13;;;;;;;;;;;;;;;5.36;39.98;99161.46;110142;1247;59726;-64
2022/03/22 07:01:43;;;;;;;33.60;23.00;;;;;;;5.36;39.57;99156.80;110389;1247;71683;-62
2022/03/22 07:04:12;;;;;;;29.60;19.70;;;;;;;5.55;39.61;99155.29;110084;1247;68579;-63
2022/03/22 07:06:42;;;;;;;29.70;20.70;;;;;;;6.18;39.26;99162.35;110290;1244;69461;-65
2022/03/22 07:09:14;;;;;;;34.20;22.00;;;;;;;6.72;38.14;99154.58;110043;1247;59693;-63
2022/03/22 07:11:49;;;;;;;50.10;31.80;;;;;;;7.03;37.86;99152.93;110144;1245;59732;-64
2022/03/22 07:14:20;;;;;;;31.10;19.60;;;;;;;7.24;38.34;99151.74;110116;1247;71697;-62
2022/03/22 07:16:51;;;;;;;29.60;22.10;;;;;;;8.02;38.07;99151.95;110100;1247;68696;-62
2022/03/22 07:19:22;;;;;;;40.20;30.20;;;;;;;8.36;36.67;99147.98;110270;1246;69265;-65
2022/03/22 07:21:52;;;;;;;41.80;32.20;;;;;;;8.39;35.40;99148.05;110193;1247;59783;-62
2022/03/22 07:24:21;;;;;;;;;;;;;;;8.71;34.99;99145.48;110315;1247;59744;-63
2022/03/22 07:26:50;;;;;;;54.50;34.70;;;;;;;8.62;34.40;99147.58;110352;1247;70994;-66
2022/03/22 07:29:20;;;;;;;48.10;32.90;;;;;;;8.52;34.88;99150.20;110169;1247;68610;-65
2022/03/22 07:31:50;;;;;;;50.10;35.70;;;;;;;8.49;34.66;99146.30;110345;1247;69855;-65
2022/03/22 07:34:21;;;;;;;53.70;38.90;;;;;;;8.94;34.23;99147.59;110325;1246;59681;-60
2022/03/22 07:36:54;;;;;;;47.70;36.20;;;;;;;8.80;33.74;99143.22;110139;1247;59719;-62
2022/03/22 07:39:24;;;;;;;42.80;32.40;;;;;;;9.05;33.62;99139.85;110319;1246;71770;-61
2022/03/22 07:41:53;;;;;;;;;;;;;;;8.94;33.42;99141.29;110281;1247;67785;-66
2022/03/22 07:44:23;;;;;;;46.40;34.40;;;;;;;9.64;32.65;99133.45;110133;1247;69537;-65
2022/03/22 07:46:53;;;;;;;;;;;;;;;9.85;32.01;99127.88;110129;1247;59760;-66
2022/03/22 07:54:59;;;;;;;40.40;31.60;;;;;;;10.17;30.94;99129.98;110305;1245;68575;-64
2022/03/22 07:57:28;;;;;;;42.40;31.40;;;;;;;9.96;31.46;99129.31;110171;1247;69428;-66
2022/03/22 07:59:58;;;;;;;42.40;30.30;;;;;;;10.44;30.60;99128.61;110353;1247;59699;-64
2022/03/22 08:02:27;;;;;;;;;;;;;;;10.61;30.70;99128.88;110103;1247;59727;-66
2022/03/22 08:04:57;;;;;;;44.10;29.00;;;;;;;11.06;31.07;99126.43;110370;1247;70713;-63
2022/03/22 08:07:27;;;;;;;36.10;26.80;;;;;;;11.43;29.39;99120.65;110201;1246;67870;-64
2022/03/22 08:09:56;;;;;;;36.70;26.30;;;;;;;11.70;29.26;99122.29;110239;1247;68658;-64
2022/03/22 08:12:26;;;;;;;33.90;27.50;;;;;;;12.01;28.72;99116.71;110270;1245;59672;-62
2022/03/22 08:14:55;;;;;;;36.90;28.60;;;;;;;12.38;28.11;99118.61;110262;1245;59632;-66
2022/03/22 08:17:25;;;;;;;36.60;27.80;;;;;;;12.77;28.15;99112.50;110379;1247;71827;-66
2022/03/22 08:19:54;;;;;;;33.80;27.20;;;;;;;13.20;27.27;99110.79;110154;1247;67924;-69
2022/03/22 08:22:25;;;;;;;41.80;29.70;;;;;;;13.92;26.55;99109.28;110092;1247;68668;-65
2022/03/22 08:24:55;;;;;;;38.60;28.00;;;;;;;14.22;26.07;99109.05;110119;1247;59811;-65
2022/03/22 08:27:24;;;;;;;34.80;27.80;;;;;;;14.43;25.67;99107.41;110200;1247;59732;-64
2022/03/22 08:29:54;;;;;;;33.30;26.30;;;;;;;14.68;25.05;99108.83;110110;1247;71581;-62
2022/03/22 08:32:23;;;;;;;32.70;23.70;;;;;;;14.99;24.88;99104.42;110013;1247;68626;-63
2022/03/22 08:34:55;;;;;;;32.80;24.70;;;;;;;15.46;24.53;99107.37;110142;1247;69680;-63
2022/03/22 08:37:24;;;;;;;33.70;25.10;;;;;;;15.90;23.48;99107.41;110253;1247;59750;-64
2022/03/22 08:39:54;;;;;;;32.30;24.70;;;;;;;15.34;23.69;99101.80;110341;1247;60107;-66
2022/03/22 08:42:24;;;;;;;21.50;18.20;;;;;;;15.94;23.59;99105.37;110126;1246;71349;-66
2022/03/22 08:44:53;;;;;;;19.00;15.10;;;;;;;16.57;22.65;99100.67;110135;1247;67877;-65
2022/03/22 08:47:22;;;;;;;17.70;13.70;;;;;;;17.10;22.27;99099.20;110180;1247;68428;-67
2022/03/22 08:49:52;;;;;;;19.80;16.00;;;;;;;17.53;20.99;99099.23;110181;1247;59748;-65
2022/03/22 08:52:21;;;;;;;;;;;;;;;17.55;20.17;99097.63;110181;1247;59746;-65
2022/03/22 08:54:51;;;;;;;18.70;16.70;;;;;;;17.67;20.82;99092.48;109996;1247;71573;-65
2022/03/22 08:57:20;;;;;;;17.40;13.80;;;;;;;17.93;20.65;99096.17;110138;1247;67830;-66
2022/03/22 08:59:49;;;;;;;;;;;;;;;18.15;20.27;99091.65;110159;1247;69432;-63
2022/03/22 09:02:18;;;;;;;15.70;13.70;;;;;;;18.66;20.09;99088.02;110167;1246;59686;-65
2022/03/22 09:07:35;;;;;;;15.20;13.60;;;;;;;19.51;18.58;99082.58;110153;1247;71638;-65
2022/03/22 09:10:04;;;;;;;;;;;;;;;19.57;18.52;99075.48;110444;1247;68705;-64
2022/03/22 09:12:34;;;;;;;;;;;;;;;19.06;18.76;99073.52;110171;1247;68679;-66
2022/03/22 09:15:03;;;;;;;23.40;18.40;;;;;;;18.74;18.80;99077.58;110451;1247;59703;-63
2022/03/22 09:17:33;;;;;;;17.00;15.20;;;;;;;18.78;19.06;99068.16;110368;1247;59743;-67
2022/03/22 09:20:02;;;;;;;;;;;;;;;18.56;19.36;99071.90;110417;1247;70830;-63
2022/03/22 09:22:32;;;;;;;18.40;14.90;;;;;;;18.75;19.21;99060.67;110422;1246;67868;-62
2022/03/22 09:25:03;;;;;;;17.40;14.50;;;;;;;19.21;19.09;99062.71;110360;1247;70066;-63
2022/03/22 09:27:32;;;;;;;21.80;18.60;;;;;;;18.22;19.05;99061.48;110437;1247;59690;-64
2022/03/22 09:30:03;;;;;;;28.90;23.80;;;;;;;18.77;19.04;99056.06;110392;1247;59765;-64
2022/03/22 09:32:35;;;;;;;30.10;24.20;;;;;;;18.73;19.11;99050.91;110461;1247;71624;-66
2022/03/22 09:35:07;;;;;;;30.80;23.50;;;;;;;18.40;19.35;99048.76;110444;1246;67963;-66
2022/03/22 09:37:38;;;;;;;31.40;25.80;;;;;;;18.67;19.29;99045.27;110153;1247;67733;-66
2022/03/22 09:40:09;;;;;;;31.90;26.70;;;;;;;18.59;18.89;99043.89;110426;1245;59690;-66
2022/03/22 09:42:42;;;;;;;35.40;28.00;;;;;;;18.25;19.41;99041.55;110370;1246;59689;-63
2022/03/22 09:45:24;;;;;;;27.30;22.70;;;;;;;17.63;20.07;99034.25;110410;1246;72130;-63
2022/03/22 09:47:54;;;;;;;29.00;22.80;;;;;;;17.00;20.53;99032.45;110429;1247;67848;-66
2022/03/22 09:51:44;;;;;;;27.80;21.60;;;;;;;16.69;21.11;99027.12;110455;1247;69756;-67
2022/03/22 09:53:14;;;;;;;;;;;;;;;17.78;19.92;99024.67;110235;1246;59819;-67
2022/03/22 09:55:44;;;;;;;25.70;20.70;;;;;;;17.67;20.05;99021.83;110391;1245;60129;-67
2022/03/22 09:58:14;;;;;;;22.80;18.20;;;;;;;16.74;20.76;99018.10;110154;1247;71573;-63
2022/03/22 10:00:43;;;;;;;22.20;18.70;;;;;;;17.37;20.52;99015.44;110146;1247;68618;-63
2022/03/22 10:03:20;;;;;;;19.90;15.80;;;;;;;18.51;19.65;99008.35;110424;1246;68964;-62
2022/03/22 10:06:03;;;;;;;24.50;18.30;;;;;;;19.41;18.61;99005.98;110002;1247;59812;-64
2022/03/22 10:08:34;;;;;;;20.10;16.20;;;;;;;20.19;18.27;99004.05;110407;1247;59693;-66
2022/03/22 10:11:06;;;;;;;18.10;16.20;;;;;;;20.49;18.15;98995.65;110179;1247;71547;-68
2022/03/22 10:13:49;;;;;;;;;;;;;;;20.57;17.28;98990.65;110429;1247;68900;-63
2022/03/22 10:16:18;;;;;;;16.60;14.30;;;;;;;20.18;17.45;98987.66;110145;1247;68723;-66
2022/03/22 10:18:48;;;;;;;16.70;14.90;;;;;;;20.74;17.12;98986.67;110413;1247;59764;-66
2022/03/22 10:21:17;;;;;;;;;;;;;;;20.10;17.12;98984.42;110455;1246;59749;-66
2022/03/22 10:23:53;;;;;;;21.70;17.80;;;;;;;19.39;18.16;98982.42;110361;1247;72238;-63
2022/03/22 10:26:35;;;;;;;21.50;17.40;;;;;;;19.85;17.84;98974.77;110376;1247;68682;-63
2022/03/22 10:29:07;;;;;;;19.40;16.40;;;;;;;19.57;17.96;98970.33;110166;1247;69452;-63
2022/03/22 10:31:40;;;;;;;18.60;15.70;;;;;;;19.29;18.30;98966.52;110223;1246;59764;-64
2022/03/22 10:34:12;;;;;;;19.50;14.70;;;;;;;18.41;18.97;98967.15;110250;1247;59678;-65
2022/03/22 10:36:42;;;;;;;18.30;14.50;;;;;;;18.13;19.26;98956.70;110395;1246;70953;-67
2022/03/22 10:39:12;;;;;;;16.30;13.10;;;;;;;18.48;19.16;98953.89;110406;1247;67596;-66
2022/03/22 10:41:46;;;;;;;15.60;12.70;;;;;;;17.79;19.86;98946.27;110425;1246;69511;-66
2022/03/22 10:44:23;;;;;;;16.30;12.30;;;;;;;18.36;19.28;98946.90;110150;1247;59753;-66
2022/03/22 10:46:52;;;;;;;17.70;14.30;;;;;;;19.19;18.71;98938.03;110175;1247;59691;-66
2022/03/22 10:49:22;;;;;;;15.50;13.50;;;;;;;19.30;18.36;98933.02;110158;1247;69771;-66
2022/03/22 10:52:12;;;;;;;16.70;13.20;;;;;;;20.09;17.79;98928.48;110415;1247;67907;-65
2022/03/22 10:54:41;;;;;;;16.00;13.60;;;;;;;20.26;17.39;98929.34;110124;1247;69509;-66
2022/03/22 10:57:13;;;;;;;16.70;12.60;;;;;;;19.97;17.77;98918.63;110134;1247;59764;-68
2022/03/22 10:59:44;;;;;;;14.50;10.80;;;;;;;19.52;18.36;98920.54;110452;1245;59665;-66
2022/03/22 11:02:21;;;;;;;17.30;12.30;;;;;;;20.08;18.02;98915.30;110406;1247;71487;-64
2022/03/22 11:04:52;;;;;;;17.00;11.30;;;;;;;20.77;17.48;98911.67;110110;1247;68643;-66
2022/03/22 11:07:23;;;;;;;16.90;12.40;;;;;;;20.85;17.20;98905.21;110374;1247;69426;-65
2022/03/22 11:09:58;;;;;;;15.10;12.10;;;;;;;21.11;16.97;98905.15;110352;1247;59745;-69
2022/03/22 11:12:34;;;;;;;16.80;11.40;;;;;;;21.36;16.86;98900.54;110386;1247;59710;-63
2022/03/22 11:15:06;;;;;;;13.00;10.60;;;;;;;21.65;16.83;98896.95;110390;1246;71964;-63
2022/03/22 11:17:36;;;;;;;11.80;9.10;;;;;;;20.48;17.18;98896.20;110394;1244;67658;-66
2022/03/22 11:20:07;;;;;;;13.80;10.50;;;;;;;21.47;16.70;98891.85;110426;1244;69425;-69
2022/03/22 11:22:48;;;;;;;12.20;10.60;;;;;;;22.58;16.43;98889.34;110343;1246;59746;-62
2022/03/22 11:25:24;;;;;;;14.70;11.90;;;;;;;23.31;15.41;98876.11;110419;1246;59792;-65
2022/03/22 11:27:57;;;;;;;15.40;11.50;;;;;;;22.42;15.58;98873.25;110440;1244;70759;-66
2022/03/22 11:30:27;;;;;;;13.20;9.70;;;;;;;22.24;15.63;98871.13;110448;1247;67868;-63
2022/03/22 11:35:49;;;;;;;12.20;8.90;;;;;;;23.16;15.68;98859.31;110371;1247;59675;-68
2022/03/22 11:38:46;;;;;;;13.90;10.60;;;;;;;24.11;15.27;98851.73;110414;1245;59612;-66
2022/03/22 11:44:39;;;;;;;8.50;7.60;;;;;;;23.95;14.17;98836.19;110223;1247;67608;-62
2022/03/22 11:47:11;;;;;;;8.10;6.60;;;;;;;24.46;14.35;98827.45;110117;1247;68884;-63
2022/03/22 11:50:07;;;;;;;9.60;7.50;;;;;;;24.98;13.43;98826.55;110143;1245;59779;-65
2022/03/22 11:52:41;;;;;;;8.80;7.30;;;;;;;25.33;13.25;98817.35;110506;1244;59738;-68
2022/03/22 11:55:16;;;;;;;11.20;8.60;;;;;;;25.66;13.21;98809.88;110438;1244;70751;-67
2022/03/22 11:57:55;;;;;;;9.30;6.90;;;;;;;26.07;12.61;98820.00;110409;1244;67853;-67
2022/03/22 12:00:55;;;;;;;9.10;7.40;;;;;;;26.16;11.94;98810.25;110342;1247;70197;-68
2022/03/22 12:03:32;;;;;;;7.40;6.50;;;;;;;25.31;12.03;98803.95;110423;1246;59703;-65
2022/03/22 12:06:11;;;;;;;10.20;7.20;;;;;;;25.34;12.06;98793.69;110464;1247;60150;-66
2022/03/22 12:08:42;;;;;;;9.00;6.90;;;;;;;26.05;12.56;98793.33;110427;1245;70798;-68
2022/03/22 12:11:16;;;;;;;8.60;6.80;;;;;;;26.72;11.73;98796.73;110440;1246;68615;-66